createdAt,value
2022-10-06T00:01:08.133Z,95823.16
2022-10-06T00:03:35.158Z,95826.09
2022-10-06T00:06:03.778Z,95828.50
2022-10-06T00:08:32.643Z,95835.75
2022-10-06T00:10:59.678Z,95833.34
2022-10-06T00:13:27.432Z,95830.38
2022-10-06T00:15:54.564Z,95831.47
2022-10-06T00:18:21.766Z,95825.00
2022-10-06T00:20:59.759Z,95825.00
2022-10-06T00:23:29.089Z,95821.78
2022-10-06T00:25:56.307Z,95815.88
2022-10-06T00:28:23.447Z,95826.63
2022-10-06T00:30:53.612Z,95820.72
2022-10-06T00:33:20.786Z,95826.06
2022-10-06T00:35:55.713Z,95818.53
2022-10-06T00:38:22.928Z,95816.38
2022-10-06T00:40:51.285Z,95813.69
2022-10-06T00:43:41.734Z,95805.63
2022-10-06T00:46:12.198Z,95802.41
2022-10-06T00:48:39.667Z,95802.13
2022-10-06T00:51:07.089Z,95797.03
2022-10-06T00:53:34.209Z,95792.19
2022-10-06T00:56:01.131Z,95789.50
2022-10-06T00:58:28.373Z,95786.28
2022-10-06T01:00:56.518Z,95784.66
2022-10-06T01:03:37.695Z,95784.13
2022-10-06T01:06:05.725Z,95780.38
2022-10-06T01:08:34.515Z,95780.91
2022-10-06T01:11:02.149Z,95781.44
2022-10-06T01:13:30.608Z,95773.91
2022-10-06T01:16:10.761Z,95778.22
2022-10-06T01:18:41.157Z,95772.03
2022-10-06T01:21:37.649Z,95764.78
2022-10-06T01:24:05.152Z,95760.22
2022-10-06T01:26:39.839Z,95764.78
2022-10-06T01:29:07.234Z,95762.63
2022-10-06T01:31:34.974Z,95768.00
2022-10-06T01:34:02.401Z,95761.03
2022-10-06T01:36:29.347Z,95761.53
2022-10-06T01:38:56.603Z,95757.50
2022-10-06T01:41:24.994Z,95761.00
2022-10-06T01:43:52.170Z,95753.19
2022-10-06T01:46:20.143Z,95759.38
2022-10-06T01:48:47.528Z,95754.00
2022-10-06T01:51:16.606Z,95764.75
2022-10-06T01:53:43.615Z,95761.50
2022-10-06T01:56:10.779Z,95763.63
2022-10-06T01:58:38.410Z,95760.69
2022-10-06T02:01:08.080Z,95763.91
2022-10-06T02:03:40.353Z,95761.44
2022-10-06T02:06:09.271Z,95764.13
2022-10-06T02:08:36.471Z,95769.47
2022-10-06T02:11:09.986Z,95764.66
2022-10-06T02:13:41.109Z,95766.78
2022-10-06T02:16:09.646Z,95762.75
2022-10-06T02:18:37.022Z,95758.72
2022-10-06T02:21:04.893Z,95764.09
2022-10-06T02:23:31.925Z,95754.97
2022-10-06T02:26:06.437Z,95753.91
2022-10-06T02:28:35.590Z,95763.28
2022-10-06T02:31:08.600Z,95759.00
2022-10-06T02:33:38.303Z,95762.75
2022-10-06T02:36:07.254Z,95760.88
2022-10-06T02:38:34.985Z,95767.81
2022-10-06T02:41:06.394Z,95757.59
2022-10-06T02:43:35.443Z,95757.59
2022-10-06T02:46:06.295Z,95772.09
2022-10-06T02:48:34.998Z,95773.16
2022-10-06T02:51:09.694Z,95765.38
2022-10-06T02:53:38.677Z,95772.06
2022-10-06T02:56:08.550Z,95765.91
2022-10-06T02:58:35.629Z,95771.00
2022-10-06T03:01:10.605Z,95771.28
2022-10-06T03:03:38.093Z,95773.41
2022-10-06T03:06:21.985Z,95770.41
2022-10-06T03:09:03.475Z,95769.00
2022-10-06T03:11:34.127Z,95771.34
2022-10-06T03:14:01.568Z,95780.41
2022-10-06T03:16:32.438Z,95768.59
2022-10-06T03:19:01.414Z,95765.06
2022-10-06T03:21:32.077Z,95770.41
2022-10-06T03:23:59.734Z,95776.63
2022-10-06T03:26:31.271Z,95762.63
2022-10-06T03:28:59.399Z,95760.47
2022-10-06T03:31:27.808Z,95767.19
2022-10-06T03:33:56.978Z,95765.91
2022-10-06T03:36:29.603Z,95763.25
2022-10-06T03:38:56.527Z,95769.41
2022-10-06T03:41:32.167Z,95761.91
2022-10-06T03:44:00.569Z,95761.63
2022-10-06T03:46:32.632Z,95759.50
2022-10-06T03:49:00.988Z,95758.41
2022-10-06T03:51:36.171Z,95757.28
2022-10-06T03:54:04.012Z,95756.72
2022-10-06T03:56:36.049Z,95751.38
2022-10-06T03:59:06.794Z,95756.81
2022-10-06T04:01:43.021Z,95756.81
2022-10-06T04:04:13.041Z,95752.50
2022-10-06T04:06:44.567Z,95760.16
2022-10-06T04:09:17.833Z,95762.97
2022-10-06T04:11:45.263Z,95757.25
2022-10-06T04:14:15.639Z,95760.72
2022-10-06T04:16:48.633Z,95766.28
2022-10-06T04:19:20.427Z,95767.06
2022-10-06T04:21:50.282Z,95763.81
2022-10-06T04:24:21.242Z,95762.50
2022-10-06T04:26:50.161Z,95760.63
2022-10-06T04:29:18.792Z,95760.38
2022-10-06T04:31:50.654Z,95770.78
2022-10-06T04:34:25.686Z,95767.06
2022-10-06T04:36:53.724Z,95776.75
2022-10-06T04:39:20.967Z,95774.63
2022-10-06T04:41:47.959Z,95770.88
2022-10-06T04:44:22.610Z,95774.91
2022-10-06T04:46:50.875Z,95775.19
2022-10-06T04:49:20.789Z,95772.00
2022-10-06T04:51:51.263Z,95774.69
2022-10-06T04:54:20.351Z,95775.50
2022-10-06T04:56:51.563Z,95777.44
2022-10-06T04:59:41.881Z,95778.81
2022-10-06T05:02:09.996Z,95785.56
2022-10-06T05:04:37.505Z,95790.97
2022-10-06T05:07:04.601Z,95783.81
2022-10-06T05:09:31.822Z,95792.19
2022-10-06T05:11:58.826Z,95794.44
2022-10-06T05:14:25.969Z,95787.25
2022-10-06T05:16:53.366Z,95786.47
2022-10-06T05:19:20.940Z,95788.63
2022-10-06T05:21:47.976Z,95772.81
2022-10-06T05:24:19.882Z,95776.31
2022-10-06T05:26:46.901Z,95784.63
2022-10-06T05:29:15.712Z,95780.06
2022-10-06T05:31:45.071Z,95780.66
2022-10-06T05:34:14.075Z,95772.63
2022-10-06T05:36:41.417Z,95772.09
2022-10-06T05:39:11.012Z,95768.38
2022-10-06T05:41:43.874Z,95775.41
2022-10-06T05:44:11.826Z,95782.16
2022-10-06T05:46:40.968Z,95773.31
2022-10-06T05:49:10.553Z,95770.94
2022-10-06T05:51:42.019Z,95779.28
2022-10-06T05:54:17.285Z,95778.75
2022-10-06T05:56:44.501Z,95790.06
2022-10-06T05:59:11.756Z,95794.09
2022-10-06T06:01:42.074Z,95797.63
2022-10-06T06:04:23.887Z,95794.09
2022-10-06T06:06:54.648Z,95804.88
2022-10-06T06:09:26.527Z,95798.66
2022-10-06T06:11:55.852Z,95804.63
2022-10-06T06:15:04.596Z,95802.16
2022-10-06T06:17:37.479Z,95797.09
2022-10-06T06:20:06.431Z,95803.00
2022-10-06T06:22:33.401Z,95808.38
2022-10-06T06:25:01.341Z,95804.63
2022-10-06T06:27:29.678Z,95810.00
2022-10-06T06:29:58.469Z,95802.47
2022-10-06T06:32:27.565Z,95805.69
2022-10-06T06:34:54.933Z,95808.09
2022-10-06T06:37:22.074Z,95806.47
2022-10-06T06:39:49.993Z,95802.69
2022-10-06T06:42:18.054Z,95806.69
2022-10-06T06:45:02.526Z,95800.25
2022-10-06T06:47:35.543Z,95802.91
2022-10-06T06:50:10.377Z,95805.03
2022-10-06T06:52:39.210Z,95796.13
2022-10-06T06:55:09.295Z,95800.13
2022-10-06T06:57:36.614Z,95792.53
2022-10-06T07:00:08.221Z,95793.88
2022-10-06T07:02:38.998Z,95792.00
2022-10-06T07:05:07.002Z,95789.22
2022-10-06T07:07:34.081Z,95786.25
2022-10-06T07:10:01.369Z,95794.63
2022-10-06T07:12:31.507Z,95788.19
2022-10-06T07:15:19.143Z,95789.19
2022-10-06T07:18:09.371Z,95789.13
2022-10-06T07:20:54.938Z,95791.72
2022-10-06T07:23:41.685Z,95785.16
2022-10-06T07:26:13.358Z,95783.47
2022-10-06T07:28:42.547Z,95785.00
2022-10-06T07:31:10.838Z,95786.00
2022-10-06T07:33:40.985Z,95776.19
2022-10-06T07:36:09.393Z,95785.09
2022-10-06T07:38:36.800Z,95779.91
2022-10-06T07:41:20.369Z,95775.50
2022-10-06T07:44:00.912Z,95774.84
2022-10-06T07:46:33.459Z,95784.69
2022-10-06T07:49:08.852Z,95772.50
2022-10-06T07:51:36.461Z,95777.91
2022-10-06T07:54:04.265Z,95778.34
2022-10-06T07:56:55.098Z,95777.66
2022-10-06T07:59:22.360Z,95772.66
2022-10-06T08:01:51.438Z,95775.25
2022-10-06T08:04:18.541Z,95772.41
2022-10-06T08:06:47.761Z,95785.94
2022-10-06T08:09:15.018Z,95783.41
2022-10-06T08:11:42.059Z,95781.94
2022-10-06T08:14:09.673Z,95769.41
2022-10-06T08:16:38.361Z,95777.34
2022-10-06T08:19:05.374Z,95772.41
2022-10-06T08:21:34.640Z,95777.34
2022-10-06T08:24:02.518Z,95774.72
2022-10-06T08:26:31.165Z,95778.66
2022-10-06T08:29:00.729Z,95763.66
2022-10-06T08:31:28.063Z,95765.09
2022-10-06T08:33:56.877Z,95771.66
2022-10-06T08:36:31.411Z,95764.63
2022-10-06T08:38:59.296Z,95760.28
2022-10-06T08:41:41.737Z,95762.69
2022-10-06T08:44:39.342Z,95744.84
2022-10-06T08:47:36.032Z,95756.50
2022-10-06T08:50:09.975Z,95754.56
2022-10-06T08:53:15.450Z,95756.88
2022-10-06T08:55:50.587Z,95752.41
2022-10-06T08:58:46.211Z,95756.91
2022-10-06T09:01:19.409Z,95757.91
2022-10-06T09:03:49.256Z,95756.41
2022-10-06T09:06:45.778Z,95761.19
2022-10-06T09:10:04.588Z,95754.88
2022-10-06T09:12:55.532Z,95756.25
2022-10-06T09:15:48.370Z,95753.66
2022-10-06T09:19:06.719Z,95746.19
2022-10-06T09:21:35.157Z,95751.91
2022-10-06T09:24:12.341Z,95743.84
2022-10-06T09:26:45.615Z,95744.91
2022-10-06T09:29:13.567Z,95739.03
2022-10-06T09:31:50.790Z,95735.72
2022-10-06T09:34:43.013Z,95728.97
2022-10-06T09:37:13.616Z,95723.38
2022-10-06T09:39:46.050Z,95720.69
2022-10-06T09:42:29.860Z,95717.84
2022-10-06T09:45:08.104Z,95721.53
2022-10-06T09:47:41.146Z,95716.22
2022-10-06T09:50:37.685Z,95723.91
2022-10-06T09:53:16.451Z,95726.13
2022-10-06T09:55:52.307Z,95715.97
2022-10-06T09:58:29.854Z,95708.22
2022-10-06T10:01:02.929Z,95721.78
2022-10-06T10:04:08.567Z,95706.13
2022-10-06T10:06:35.383Z,95716.06
2022-10-06T10:09:38.081Z,95710.84
2022-10-06T10:12:28.236Z,95705.78
2022-10-06T10:15:17.351Z,95710.88
2022-10-06T10:17:54.008Z,95707.16
2022-10-06T10:20:34.315Z,95704.59
2022-10-06T10:23:30.092Z,95701.69
2022-10-06T10:26:41.256Z,95704.16
2022-10-06T10:29:42.898Z,95705.75
2022-10-06T10:32:40.457Z,95693.66
2022-10-06T10:35:26.433Z,95691.31
2022-10-06T10:38:00.395Z,95687.94
2022-10-06T10:40:41.072Z,95683.81
2022-10-06T10:43:38.328Z,95681.53
2022-10-06T10:46:38.269Z,95682.78
2022-10-06T10:49:38.582Z,95675.88
2022-10-06T10:52:34.803Z,95674.72
2022-10-06T10:55:34.946Z,95668.97
2022-10-06T10:58:20.415Z,95666.63
2022-10-06T11:00:52.415Z,95670.22
2022-10-06T11:03:19.452Z,95661.88
2022-10-06T11:06:27.289Z,95658.66
2022-10-06T11:09:08.741Z,95643.81
2022-10-06T11:12:22.344Z,95648.88
2022-10-06T11:15:21.972Z,95651.78
2022-10-06T11:17:51.133Z,95648.47
2022-10-06T11:20:39.548Z,95643.38
2022-10-06T11:23:25.005Z,95634.88
2022-10-06T11:52:46.677Z,95589.59
2022-10-06T11:55:18.113Z,95587.88
2022-10-06T12:01:02.696Z,95581.91
2022-10-06T12:03:45.668Z,95579.59
2022-10-06T12:06:51.129Z,95574.97
2022-10-06T12:09:49.627Z,95572.84
2022-10-06T12:12:39.914Z,95568.75
2022-10-06T12:18:47.295Z,95565.34
2022-10-06T12:21:45.914Z,95565.56
2022-10-06T12:25:02.292Z,95563.38
2022-10-06T12:28:28.546Z,95562.56
2022-10-06T12:31:29.424Z,95553.75
2022-10-06T12:33:56.751Z,95556.91
2022-10-06T12:36:28.514Z,95552.88
2022-10-06T12:39:21.250Z,95551.06
2022-10-06T12:42:07.321Z,95549.50
2022-10-06T12:44:43.126Z,95542.50
2022-10-06T12:47:23.122Z,95541.78
2022-10-06T12:49:58.845Z,95537.84
2022-10-06T12:52:59.119Z,95540.47
2022-10-06T12:56:03.009Z,95537.28
2022-10-06T12:58:32.574Z,95527.75
2022-10-06T13:01:10.540Z,95536.97
2022-10-06T13:03:37.795Z,95528.00
2022-10-06T13:06:08.013Z,95529.75
2022-10-06T13:08:37.134Z,95518.81
2022-10-06T13:11:21.997Z,95521.28
2022-10-06T13:14:15.288Z,95523.31
2022-10-06T13:16:45.761Z,95511.50
2022-10-06T13:19:22.701Z,95513.81
2022-10-06T13:21:49.938Z,95512.97
2022-10-06T13:24:25.990Z,95512.19
2022-10-06T13:26:54.106Z,95515.44
2022-10-06T13:29:24.142Z,95509.94
2022-10-06T13:31:53.777Z,95504.47
2022-10-06T13:34:43.371Z,95507.28
2022-10-06T13:37:15.313Z,95506.53
2022-10-06T13:39:42.446Z,95508.50
2022-10-06T13:42:18.428Z,95513.25
2022-10-06T13:44:57.190Z,95501.34
2022-10-06T13:47:25.918Z,95506.88
2022-10-06T13:50:06.177Z,95507.28
2022-10-06T13:52:53.426Z,95510.06
2022-10-06T13:55:28.231Z,95502.16
2022-10-06T13:58:18.045Z,95502.13
2022-10-06T14:01:01.102Z,95502.94
2022-10-06T14:03:36.980Z,95498.19
2022-10-06T14:06:19.342Z,95500.91
2022-10-06T14:08:55.188Z,95503.66
2022-10-06T14:11:28.526Z,95505.16
2022-10-06T14:14:01.407Z,95502.78
2022-10-06T14:16:29.760Z,95505.16
2022-10-06T14:19:00.379Z,95507.13
2022-10-06T14:21:53.759Z,95509.44
2022-10-06T14:24:24.180Z,95507.53
2022-10-06T14:26:51.038Z,95505.16
2022-10-06T14:29:19.314Z,95503.59
2022-10-06T14:31:46.962Z,95505.66
2022-10-06T14:34:16.589Z,95507.25
2022-10-06T14:36:48.842Z,95517.56
2022-10-06T14:39:16.138Z,95510.06
2022-10-06T14:41:43.283Z,95511.69
2022-10-06T14:44:11.718Z,95505.38
2022-10-06T14:46:43.919Z,95512.47
2022-10-06T14:49:13.599Z,95505.72
2022-10-06T14:51:42.417Z,95510.50
2022-10-06T14:54:10.897Z,95513.66
2022-10-06T14:56:39.249Z,95520.41
2022-10-06T14:59:08.936Z,95520.41
2022-10-06T15:01:37.747Z,95518.81
2022-10-06T15:04:11.541Z,95522.34
2022-10-06T15:06:58.214Z,95521.94
2022-10-06T15:09:25.136Z,95529.75
2022-10-06T15:11:53.899Z,95520.94
2022-10-06T15:14:24.505Z,95525.50
2022-10-06T15:16:51.893Z,95519.72
2022-10-06T15:19:18.931Z,95524.91
2022-10-06T15:21:45.930Z,95522.19
2022-10-06T15:24:15.503Z,95525.88
2022-10-06T15:27:02.018Z,95532.63
2022-10-06T15:29:29.322Z,95524.38
2022-10-06T15:31:56.712Z,95536.63
2022-10-06T15:34:26.565Z,95533.09
2022-10-06T15:36:54.661Z,95542.88
2022-10-06T15:39:26.595Z,95543.56
2022-10-06T15:41:54.173Z,95533.84
2022-10-06T15:44:21.901Z,95534.16
2022-10-06T15:46:51.063Z,95529.81
2022-10-06T15:49:23.199Z,95537.97
2022-10-06T15:51:56.870Z,95539.09
2022-10-06T15:54:26.198Z,95535.94
2022-10-06T15:56:55.613Z,95536.22
2022-10-06T15:59:26.482Z,95527.97
2022-10-06T16:02:00.369Z,95542.47
2022-10-06T16:04:58.641Z,95530.63
2022-10-06T16:07:25.597Z,95537.66
2022-10-06T16:09:52.817Z,95545.44
2022-10-06T16:12:22.357Z,95547.94
2022-10-06T16:14:49.525Z,95545.66
2022-10-06T16:17:17.171Z,95553.81
2022-10-06T16:19:44.485Z,95560.38
2022-10-06T16:22:17.311Z,95557.97
2022-10-06T16:24:44.566Z,95563.38
2022-10-06T16:27:13.217Z,95560.13
2022-10-06T16:29:40.274Z,95564.31
2022-10-06T16:32:07.213Z,95564.63
2022-10-06T16:34:34.146Z,95562.66
2022-10-06T16:37:01.053Z,95568.66
2022-10-06T16:39:28.086Z,95572.91
2022-10-06T16:41:55.032Z,95572.97
2022-10-06T16:44:22.089Z,95573.63
2022-10-06T16:46:49.082Z,95574.31
2022-10-06T16:49:16.115Z,95580.75
2022-10-06T16:51:45.822Z,95587.78
2022-10-06T16:54:14.577Z,95588.47
2022-10-06T16:56:44.661Z,95581.75
2022-10-06T16:59:19.930Z,95583.81
2022-10-06T17:01:47.672Z,95588.78
2022-10-06T17:04:18.153Z,95590.84
2022-10-06T17:06:47.784Z,95588.28
2022-10-06T17:09:17.282Z,95585.06
2022-10-06T17:11:53.000Z,95590.16
2022-10-06T17:14:21.579Z,95593.16
2022-10-06T17:16:50.958Z,95597.47
2022-10-06T17:19:19.597Z,95588.63
2022-10-06T17:21:49.521Z,95593.72
2022-10-06T17:24:30.733Z,95602.66
2022-10-06T17:26:58.162Z,95608.84
2022-10-06T17:29:26.250Z,95612.81
2022-10-06T17:31:56.441Z,95603.69
2022-10-06T17:34:27.820Z,95599.63
2022-10-06T17:36:58.715Z,95604.88
2022-10-06T17:39:25.689Z,95605.59
2022-10-06T17:41:53.755Z,95607.97
2022-10-06T17:44:23.543Z,95605.47
2022-10-06T17:46:56.513Z,95614.16
2022-10-06T17:49:24.800Z,95613.47
2022-10-06T17:51:53.700Z,95620.44
2022-10-06T17:54:23.481Z,95616.25
2022-10-06T17:56:53.276Z,95626.94
2022-10-06T17:59:22.798Z,95624.91
2022-10-06T18:01:51.486Z,95628.56
2022-10-06T18:04:19.016Z,95631.56
2022-10-06T18:06:47.498Z,95637.00
2022-10-06T18:09:15.962Z,95636.50
2022-10-06T18:11:44.532Z,95636.50
2022-10-06T18:14:16.857Z,95638.59
2022-10-06T18:16:57.725Z,95629.19
2022-10-06T18:19:32.473Z,95629.06
2022-10-06T18:22:10.314Z,95631.41
2022-10-06T18:24:38.228Z,95633.25
2022-10-06T18:27:06.689Z,95629.63
2022-10-06T18:29:38.638Z,95635.97
2022-10-06T18:36:13.005Z,95630.06
2022-10-06T18:37:41.752Z,95625.88
2022-10-06T18:40:10.143Z,95630.47
2022-10-06T18:42:38.638Z,95632.44
2022-10-06T18:45:27.151Z,95627.63
2022-10-06T18:48:12.903Z,95633.94
2022-10-06T18:50:40.255Z,95639.97
2022-10-06T18:53:07.384Z,95640.56
2022-10-06T18:55:35.262Z,95636.88
2022-10-06T18:58:02.430Z,95643.66
2022-10-06T19:00:29.301Z,95640.56
2022-10-06T19:02:57.029Z,95643.97
2022-10-06T19:05:24.531Z,95652.25
2022-10-06T19:07:54.000Z,95647.44
2022-10-06T19:10:21.054Z,95651.25
2022-10-06T19:12:48.565Z,95647.44
2022-10-06T19:15:20.231Z,95650.16
2022-10-06T19:17:47.938Z,95641.03
2022-10-06T19:20:14.912Z,95648.13
2022-10-06T19:22:43.552Z,95650.63
2022-10-06T19:25:11.343Z,95657.06
2022-10-06T19:27:38.407Z,95655.66
2022-10-06T19:30:06.149Z,95659.81
2022-10-06T19:32:33.415Z,95655.22
2022-10-06T19:35:00.867Z,95662.31
2022-10-06T19:37:30.002Z,95668.94
2022-10-06T19:39:57.971Z,95667.41
2022-10-06T19:42:43.727Z,95676.41
2022-10-06T19:45:12.247Z,95676.78
2022-10-06T19:47:40.338Z,95679.38
2022-10-06T19:50:12.035Z,95683.16
2022-10-06T19:52:40.755Z,95685.72
2022-10-06T19:55:07.905Z,95677.09
2022-10-06T19:57:35.050Z,95686.81
2022-10-06T20:00:02.055Z,95676.28
2022-10-06T20:02:42.370Z,95679.28
2022-10-06T20:05:11.074Z,95670.09
2022-10-06T20:07:38.052Z,95664.09
2022-10-06T20:10:07.006Z,95670.28
2022-10-06T20:12:36.680Z,95667.69
2022-10-06T20:15:06.931Z,95675.63
2022-10-06T20:17:35.540Z,95663.94
2022-10-06T20:20:04.458Z,95671.34
2022-10-06T20:22:31.878Z,95678.00
2022-10-06T20:24:59.050Z,95671.63
2022-10-06T20:27:26.063Z,95675.50
2022-10-06T20:29:53.965Z,95679.34
2022-10-06T20:32:21.504Z,95677.22
2022-10-06T20:34:48.419Z,95681.66
2022-10-06T20:37:15.361Z,95677.13
2022-10-06T20:40:01.248Z,95676.91
2022-10-06T20:42:28.290Z,95680.94
2022-10-06T20:44:55.278Z,95686.34
2022-10-06T20:47:22.806Z,95676.91
2022-10-06T20:49:55.520Z,95680.34
2022-10-06T20:52:24.090Z,95687.00
2022-10-06T20:54:51.395Z,95678.00
2022-10-06T20:57:18.509Z,95684.50
2022-10-06T20:59:46.430Z,95685.09
2022-10-06T21:02:13.694Z,95679.75
2022-10-06T21:04:46.174Z,95684.72
2022-10-06T21:07:13.202Z,95676.66
2022-10-06T21:09:40.219Z,95675.75
2022-10-06T21:12:07.370Z,95677.13
2022-10-06T21:14:36.430Z,95679.94
2022-10-06T21:17:03.343Z,95681.38
2022-10-06T21:19:30.356Z,95684.41
2022-10-06T21:21:57.291Z,95679.06
2022-10-06T21:24:24.358Z,95685.53
2022-10-06T21:26:52.955Z,95675.78
2022-10-06T21:29:20.982Z,95687.13
2022-10-06T21:31:48.171Z,95685.50
2022-10-06T21:34:15.275Z,95691.72
2022-10-06T21:36:43.622Z,95695.22
2022-10-06T21:39:12.201Z,95697.09
2022-10-06T21:41:39.905Z,95702.75
2022-10-06T21:44:12.989Z,95698.94
2022-10-06T21:46:47.849Z,95699.47
2022-10-06T21:49:18.152Z,95701.94
2022-10-06T21:51:47.859Z,95697.66
2022-10-06T21:54:15.802Z,95699.03
2022-10-06T21:56:42.826Z,95694.16
2022-10-06T21:59:10.422Z,95695.25
2022-10-06T22:01:40.277Z,95684.75
2022-10-06T22:04:08.119Z,95685.03
2022-10-06T22:06:36.849Z,95687.72
2022-10-06T22:09:06.518Z,95674.81
2022-10-06T22:11:39.373Z,95682.38
2022-10-06T22:14:10.867Z,95679.16
2022-10-06T22:16:38.410Z,95676.53
2022-10-06T22:19:09.118Z,95679.53
2022-10-06T22:21:44.170Z,95667.44
2022-10-06T22:24:13.590Z,95675.59
2022-10-06T22:26:42.050Z,95671.00
2022-10-06T22:29:11.996Z,95669.38
2022-10-06T22:31:40.784Z,95671.34
2022-10-06T22:34:09.663Z,95669.19
2022-10-06T22:36:36.632Z,95676.53
2022-10-06T22:39:04.232Z,95677.34
2022-10-06T22:41:31.521Z,95683.31
2022-10-06T22:43:59.698Z,95681.97
2022-10-06T22:46:31.753Z,95681.69
2022-10-06T22:48:58.866Z,95681.41
2022-10-06T22:51:25.961Z,95669.81
2022-10-06T22:53:58.553Z,95682.75
2022-10-06T22:56:31.888Z,95675.97
2022-10-06T22:59:00.150Z,95687.56
